Banquereau: Past 24 Hour Conditions

 

J.A. Douglas McCurdy Sydney Airport

09:00 PM ADT 20 October 2014
This table is a summary of hourly weather conditions for the past 24 hours.
Date / Time
(ADT)
Wind(knots) Conditions Visibility(km) Pressure(kPa) Air tempC) Relative humidity(%) Dew pointC)
20 October 2014
21:00 WSW 12 gust 18 Cloudy 24 101.0 7 71 2
20:00 WSW 11 Mostly Cloudy 24 101.0 7 68 1
19:00 SW 10 gust 16 Mostly Cloudy 24 100.9 7 70 1
18:00 SW 11 gust 18 Mostly Cloudy 24 100.8 6 72 2
17:00 WSW 17 Mostly Cloudy 24 100.7 7 70 2
16:00 W 15 gust 26 Partly Cloudy 24 100.6 7 72 2
15:00 WSW 18 gust 29 Partly Cloudy 24 100.5 8 68 3
14:00 W 19 gust 28 Mostly Cloudy 24 100.4 8 69 3
13:00 WSW 22 gust 30 Mostly Cloudy 24 100.3 8 71 3
12:00 WSW 19 gust 27 Mostly Cloudy 24 100.2 8 77 5
11:00 WSW 21 gust 29 Mostly Cloudy 24 100.1 8 82 5
10:00 WSW 16 gust 26 Cloudy 24 100.0 8 88 6
9:00 W 15 Mostly Cloudy 24 99.7 9 90 8
8:00 W 17 Light Rain 10 99.5 10 95 9
7:00 WSW 12 Light Rain 8 99.3 11 98 11
6:00 NW 8 Light Rain 4 99.3 11 98 10
5:00 NW 13 gust 19 Light Rain 3 99.3 11 97 11
4:00 N 15 Light Rain 3 99.3 11 98 11
3:00 NNW 7 Light Rain 11 99.5 12 97 11
2:00 N 8 Light Rain 11 99.7 12 96 11
1:00 ENE 3 Light Rain 13 99.9 13 96 12
0:00 E 6 Light Rain 8 100.1 13 98 13
19 October 2014
23:00 SSE 5 Light Rain 5 100.3 13 98 13
22:00 SSE 4 Mostly Cloudy 13 100.3 13 97 13
21:00 S 6 Cloudy 24 100.4 14 96 13
 
Map of Atlantic - Newfoundland marine weather areas Southwestern Grand Banks - 44138 Banquereau - 44139 Tail of the Bank - 44140 Nickerson Bank - 44251 Northeast Burgeo Bank - 44255 Blanc-Sablon Airport Cap Whittle Chevery Natashquan Airport Heath Point Miscou Island Grand Étang Ingonish Beach North Mountain St.Paul Island J.A. Douglas McCurdy Sydney Airport Charlottetown Airport East Point North Cape Argentia Bonavista Burgeo Cape Race Corner Brook Daniel's Harbour Englee Ferolle Point La Scie Port aux Basques Rocky Harbour Sagona Island St. Anthony Airport St. John's Int'l Airport St. Lawrence Stephenville Airport Twillingate Winterland Wreckhouse Cartwright Airport Mary's Harbour Grates Cove Pool's Island Marticot Island Long Pond Îles de la Madeleine Airport
Legend: buoyBuoy land stationLand Station